Pagrindinis puslapis
METAR-TAF:

METAR-TAF

Oro uostai :

Tena, Ekvadoras

platuma: 01-03-35S, ilguma: 77-35-00W, Aukštis: 376 m

Dabartinis oras

Ataskaita buvo paskelbta 1 valandą ir 4 minutes, ne 21:00 UTC
Vėjas 4 kt iš Pietvakarių
Temperatūra 22°C
Drėgmė 100%
Slėgis 1016 hPa
Matomumas 10 km arba daugiau
Mažai debesys ne aukštis 300 ft
Išsisklaidę debesys ne aukštis 1000 ft
Apsiniaukę ne aukštis 10000 ft
lietus

METAR: SEJD 052100Z 22004KT 9999 -RA FEW003 SCT010 OVC100 22/22 Q1016 RMK A3001

Laikas: 17:04 (22:04 UTC)


TAF: trūkstamas

Orai ataskaitas ir orų prognozės (METAR, TAF).

turimą stotys yra geltonos ir raudonos taškus žemėlapyje.

Perkelti pele per norėdami pamatyti stoties vardą.

Tada spustelėkite, norėdami matyti oro stebėjimo ir prognozės.

Norėdami pakeisti žemėlapį: spustelėkite ant žalios mygtukų su juodo kryžiaus žemyn,; žalią mygtuką su brūkšneliu, jei norite nutolinti; arba žalių rodyklių gretimoms žemėlapius.


METAR-TAF: